KABE/ABE METAR and TAF weather

Enter ICAO airport designator
Station Type Date Time Source
KABE METAR 2019/06/16 05:51 UTC NOAA

KABE 160551Z 20008KT 10SM BKN100 22/13 A2993 RMK AO2 SLP133 T02220133 10250 20217 56009 $


Station Type Date Time Source
KABE Decoded METAR 2019/06/16 05:51 UTC NOAA

LEHIGH VALLEY INTERNATIONAL AIRPORT, PA, United States (KABE) 40-39N 075-27W 114M
Jun 16, 2019 - 01:51 AM EDT / 2019.06.16 0551 UTC
Wind: from the SSW (200 degrees) at 9 MPH (8 KT):0
Visibility: 10 mile(s):0
Sky conditions: mostly cloudy
Temperature: 72.0 F (22.2 C)
Dew Point: 55.9 F (13.3 C)
Relative Humidity: 57%
Pressure (altimeter): 29.93 in. Hg (1013 hPa)
Pressure tendency: 0.03 inches (0.9 hPa) lower than three hours ago
ob: KABE 160551Z 20008KT 10SM BKN100 22/13 A2993 RMK AO2 SLP133 T02220133 10250 20217 56009
cycle: 6

Station Type Date Time Source
KABE TAF 2019/06/16 06:22 UTC NOAA

TAF KABE 160520Z 1606/1706 21007KT P6SM BKN120
FM161700 24011KT P6SM VCTS BKN050CB
FM170000 VRB04KT P6SM BKN040

Example: see airport list